XSR325 KSAT-KCLL
Flight info
| Callsign | XSR325 |
|---|---|
| Flight time | 0h 30m |
| Altitude | 21000 |
| Route | SAT V550 CWK V565 OSUME |
| Aircraft | E55P/M-SBDGRW/LB2 |
Departure
| Time | 2026-05-08 18:33 |
|---|---|
| Airport | San Antonio International Airport (KSAT) |
Arrival
| Time | 2026-05-08 19:03 |
|---|---|
| Airport | Easterwood Field (KCLL) |
| Time | Latitude | Longitude | Altitude | Speed | Heading |
|---|---|---|---|---|---|
| 2026-05-08 17:44 | 29.52173 | -98.46735 | 780 ft | 0 kts | 223° |
| 2026-05-08 18:30 | 29.52169 | -98.46750 | 781 ft | 3 kts | 283° |
| 2026-05-08 18:30 | 29.52195 | -98.46770 | 781 ft | 7 kts | 338° |
| 2026-05-08 18:30 | 29.52236 | -98.46815 | 782 ft | 7 kts | 312° |
| 2026-05-08 18:31 | 29.52270 | -98.46858 | 783 ft | 6 kts | 313° |
| 2026-05-08 18:31 | 29.52292 | -98.46884 | 783 ft | 0 kts | 312° |
| 2026-05-08 18:31 | 29.52294 | -98.46887 | 783 ft | 1 kts | 311° |
| 2026-05-08 18:32 | 29.52315 | -98.46914 | 784 ft | 6 kts | 312° |
| 2026-05-08 18:32 | 29.52347 | -98.46952 | 785 ft | 6 kts | 339° |
| 2026-05-08 18:32 | 29.52392 | -98.46923 | 784 ft | 14 kts | 41° |
| 2026-05-08 18:32 | 29.52683 | -98.46635 | 779 ft | 97 kts | 40° |
| 2026-05-08 18:33 | 29.53347 | -98.45997 | 979 ft | 141 kts | 40° |
| 2026-05-08 18:33 | 29.54133 | -98.45264 | 1572 ft | 159 kts | 40° |
| 2026-05-08 18:33 | 29.55067 | -98.44393 | 2093 ft | 185 kts | 40° |
| 2026-05-08 18:33 | 29.56115 | -98.43424 | 2764 ft | 203 kts | 41° |
| 2026-05-08 18:34 | 29.57248 | -98.42384 | 3485 ft | 218 kts | 41° |
| 2026-05-08 18:34 | 29.58499 | -98.41273 | 4122 ft | 237 kts | 40° |
| 2026-05-08 18:34 | 29.59822 | -98.40063 | 4778 ft | 254 kts | 40° |
| 2026-05-08 18:34 | 29.61331 | -98.38920 | 5506 ft | 268 kts | 29° |
| 2026-05-08 18:35 | 29.63067 | -98.37998 | 6235 ft | 280 kts | 24° |
| 2026-05-08 18:35 | 29.64871 | -98.37064 | 6948 ft | 291 kts | 25° |
| 2026-05-08 18:35 | 29.66719 | -98.36086 | 7673 ft | 301 kts | 26° |
| 2026-05-08 18:35 | 29.68656 | -98.35051 | 8399 ft | 310 kts | 25° |
| 2026-05-08 18:36 | 29.70595 | -98.34024 | 9291 ft | 311 kts | 24° |
| 2026-05-08 18:36 | 29.72568 | -98.32978 | 10134 ft | 314 kts | 24° |
| 2026-05-08 18:36 | 29.74570 | -98.31918 | 10925 ft | 319 kts | 24° |
| 2026-05-08 18:36 | 29.76568 | -98.30859 | 11743 ft | 321 kts | 24° |
| 2026-05-08 18:37 | 29.78609 | -98.29775 | 12581 ft | 323 kts | 23° |
| 2026-05-08 18:37 | 29.80641 | -98.28697 | 13357 ft | 327 kts | 23° |
| 2026-05-08 18:37 | 29.82701 | -98.27603 | 14103 ft | 331 kts | 22° |
| 2026-05-08 18:37 | 29.84814 | -98.26483 | 14739 ft | 339 kts | 22° |
| 2026-05-08 18:38 | 29.87014 | -98.25315 | 15270 ft | 350 kts | 22° |
| 2026-05-08 18:38 | 29.89251 | -98.24124 | 15721 ft | 363 kts | 22° |
| 2026-05-08 18:38 | 29.91583 | -98.22885 | 16129 ft | 374 kts | 22° |
| 2026-05-08 18:38 | 29.93983 | -98.21609 | 16550 ft | 382 kts | 22° |
| 2026-05-08 18:39 | 29.96415 | -98.20312 | 17049 ft | 388 kts | 22° |
| 2026-05-08 18:39 | 29.98864 | -98.19009 | 17589 ft | 391 kts | 21° |
| 2026-05-08 18:39 | 30.01341 | -98.17690 | 18144 ft | 394 kts | 21° |
| 2026-05-08 18:39 | 30.03823 | -98.16363 | 18676 ft | 398 kts | 21° |
| 2026-05-08 18:40 | 30.06355 | -98.15013 | 19197 ft | 403 kts | 21° |
| 2026-05-08 18:40 | 30.08909 | -98.13650 | 19687 ft | 408 kts | 21° |
| 2026-05-08 18:40 | 30.11321 | -98.11890 | 20132 ft | 421 kts | 41° |
| 2026-05-08 18:40 | 30.13053 | -98.09112 | 20604 ft | 430 kts | 64° |
| 2026-05-08 18:41 | 30.14330 | -98.06013 | 20895 ft | 438 kts | 63° |
| 2026-05-08 18:41 | 30.15731 | -98.02788 | 20944 ft | 446 kts | 62° |
| 2026-05-08 18:41 | 30.17128 | -97.99648 | 20951 ft | 445 kts | 62° |
| 2026-05-08 18:41 | 30.18552 | -97.96450 | 20956 ft | 444 kts | 62° |
| 2026-05-08 18:42 | 30.19964 | -97.93292 | 20957 ft | 443 kts | 62° |
| 2026-05-08 18:42 | 30.21363 | -97.90157 | 20957 ft | 443 kts | 62° |
| 2026-05-08 18:42 | 30.22779 | -97.86971 | 20958 ft | 443 kts | 62° |
| 2026-05-08 18:42 | 30.24186 | -97.83819 | 20959 ft | 443 kts | 62° |
| 2026-05-08 18:43 | 30.25596 | -97.80653 | 20956 ft | 442 kts | 62° |
| 2026-05-08 18:43 | 30.26998 | -97.77498 | 20958 ft | 442 kts | 62° |
| 2026-05-08 18:43 | 30.28398 | -97.74340 | 20959 ft | 442 kts | 62° |
| 2026-05-08 18:43 | 30.29794 | -97.71206 | 20965 ft | 442 kts | 62° |
| 2026-05-08 18:44 | 30.31197 | -97.68044 | 20964 ft | 442 kts | 62° |
| 2026-05-08 18:44 | 30.32597 | -97.64880 | 20966 ft | 442 kts | 62° |
| 2026-05-08 18:44 | 30.33998 | -97.61721 | 20966 ft | 442 kts | 62° |
| 2026-05-08 18:44 | 30.35396 | -97.58559 | 20894 ft | 444 kts | 62° |
| 2026-05-08 18:45 | 30.36815 | -97.55351 | 20516 ft | 454 kts | 62° |
| 2026-05-08 18:45 | 30.38099 | -97.52020 | 19950 ft | 459 kts | 73° |
| 2026-05-08 18:45 | 30.38813 | -97.48450 | 19422 ft | 451 kts | 76° |
| 2026-05-08 18:45 | 30.39542 | -97.44951 | 18902 ft | 443 kts | 77° |
| 2026-05-08 18:46 | 30.40244 | -97.41542 | 18423 ft | 433 kts | 76° |
| 2026-05-08 18:46 | 30.40930 | -97.38215 | 17941 ft | 424 kts | 76° |
| 2026-05-08 18:46 | 30.41615 | -97.34927 | 17425 ft | 419 kts | 77° |
| 2026-05-08 18:46 | 30.42292 | -97.31659 | 16899 ft | 418 kts | 77° |
| 2026-05-08 18:47 | 30.42971 | -97.28381 | 16368 ft | 416 kts | 77° |
| 2026-05-08 18:47 | 30.43640 | -97.25146 | 15838 ft | 414 kts | 77° |
| 2026-05-08 18:47 | 30.44307 | -97.21905 | 15303 ft | 412 kts | 77° |
| 2026-05-08 18:47 | 30.44963 | -97.18724 | 14770 ft | 409 kts | 77° |
| 2026-05-08 18:48 | 30.45615 | -97.15558 | 14237 ft | 406 kts | 77° |
| 2026-05-08 18:48 | 30.46263 | -97.12410 | 13702 ft | 399 kts | 77° |
| 2026-05-08 18:48 | 30.46905 | -97.09278 | 13159 ft | 393 kts | 77° |
| 2026-05-08 18:48 | 30.47526 | -97.06240 | 12979 ft | 389 kts | 77° |
| 2026-05-08 18:49 | 30.48149 | -97.03213 | 12960 ft | 386 kts | 77° |
| 2026-05-08 18:49 | 30.48763 | -97.00205 | 12956 ft | 384 kts | 77° |
| 2026-05-08 18:49 | 30.49375 | -96.97208 | 12852 ft | 383 kts | 77° |
| 2026-05-08 18:49 | 30.49976 | -96.94273 | 12599 ft | 365 kts | 77° |
| 2026-05-08 18:50 | 30.50545 | -96.91478 | 12301 ft | 348 kts | 77° |
| 2026-05-08 18:50 | 30.51087 | -96.88816 | 11923 ft | 336 kts | 78° |
| 2026-05-08 18:50 | 30.51619 | -96.86199 | 11489 ft | 328 kts | 78° |
| 2026-05-08 18:50 | 30.52136 | -96.83653 | 11032 ft | 322 kts | 78° |
| 2026-05-08 18:51 | 30.52862 | -96.81229 | 10540 ft | 319 kts | 64° |
| 2026-05-08 18:51 | 30.54185 | -96.79224 | 10054 ft | 313 kts | 39° |
| 2026-05-08 18:51 | 30.55867 | -96.77680 | 9582 ft | 306 kts | 36° |
| 2026-05-08 18:51 | 30.57563 | -96.76233 | 9095 ft | 300 kts | 35° |
| 2026-05-08 18:52 | 30.59231 | -96.74831 | 8617 ft | 296 kts | 35° |
| 2026-05-08 18:52 | 30.60893 | -96.73438 | 8130 ft | 291 kts | 35° |
| 2026-05-08 18:52 | 30.62519 | -96.72074 | 7643 ft | 286 kts | 35° |
| 2026-05-08 18:52 | 30.64112 | -96.70736 | 7163 ft | 282 kts | 36° |
| 2026-05-08 18:53 | 30.65704 | -96.69402 | 6675 ft | 279 kts | 36° |
| 2026-05-08 18:53 | 30.67252 | -96.68101 | 6194 ft | 276 kts | 36° |
| 2026-05-08 18:53 | 30.68802 | -96.66801 | 5711 ft | 273 kts | 36° |
| 2026-05-08 18:53 | 30.70330 | -96.65517 | 5228 ft | 270 kts | 37° |
| 2026-05-08 18:54 | 30.71828 | -96.64257 | 4673 ft | 270 kts | 37° |
| 2026-05-08 18:54 | 30.73344 | -96.62982 | 4076 ft | 270 kts | 37° |
| 2026-05-08 18:54 | 30.74866 | -96.61699 | 3472 ft | 269 kts | 37° |
| 2026-05-08 18:54 | 30.76311 | -96.60371 | 3024 ft | 261 kts | 50° |
| 2026-05-08 18:55 | 30.77347 | -96.56644 | 2963 ft | 233 kts | 78° |
| 2026-05-08 18:55 | 30.77659 | -96.54850 | 2957 ft | 223 kts | 79° |
| 2026-05-08 18:55 | 30.77962 | -96.53101 | 2957 ft | 214 kts | 79° |
| 2026-05-08 18:56 | 30.78247 | -96.51451 | 2950 ft | 206 kts | 79° |
| 2026-05-08 18:56 | 30.78520 | -96.49856 | 2956 ft | 198 kts | 80° |
| 2026-05-08 18:56 | 30.78785 | -96.48299 | 2949 ft | 192 kts | 80° |
| 2026-05-08 18:56 | 30.79035 | -96.46832 | 2853 ft | 184 kts | 79° |
| 2026-05-08 18:57 | 30.79289 | -96.45358 | 2609 ft | 183 kts | 80° |
| 2026-05-08 18:57 | 30.79454 | -96.44405 | 2486 ft | 179 kts | 79° |
| 2026-05-08 18:57 | 30.79734 | -96.42532 | 2163 ft | 175 kts | 91° |
| 2026-05-08 18:57 | 30.79287 | -96.41299 | 2084 ft | 166 kts | 136° |
| 2026-05-08 18:58 | 30.78262 | -96.40706 | 2053 ft | 163 kts | 161° |
| 2026-05-08 18:58 | 30.77184 | -96.40364 | 2077 ft | 158 kts | 163° |
| 2026-05-08 18:58 | 30.76127 | -96.40082 | 2092 ft | 155 kts | 165° |
| 2026-05-08 18:58 | 30.75074 | -96.39810 | 2073 ft | 154 kts | 166° |
| 2026-05-08 18:59 | 30.74023 | -96.39558 | 2096 ft | 153 kts | 165° |
| 2026-05-08 18:59 | 30.72978 | -96.39310 | 2127 ft | 152 kts | 167° |
| 2026-05-08 18:59 | 30.71935 | -96.39070 | 2134 ft | 154 kts | 168° |
| 2026-05-08 18:59 | 30.70865 | -96.38826 | 2150 ft | 156 kts | 167° |
| 2026-05-08 19:00 | 30.69803 | -96.38596 | 2137 ft | 151 kts | 168° |
| 2026-05-08 19:00 | 30.68810 | -96.38374 | 2071 ft | 140 kts | 167° |
| 2026-05-08 19:00 | 30.67886 | -96.38150 | 1900 ft | 131 kts | 166° |
| 2026-05-08 19:00 | 30.67012 | -96.37939 | 1741 ft | 127 kts | 167° |
| 2026-05-08 19:01 | 30.66141 | -96.37761 | 1575 ft | 126 kts | 168° |
| 2026-05-08 19:01 | 30.65290 | -96.37571 | 1427 ft | 123 kts | 166° |
| 2026-05-08 19:01 | 30.64461 | -96.37381 | 1272 ft | 121 kts | 166° |
| 2026-05-08 19:01 | 30.63639 | -96.37200 | 1112 ft | 120 kts | 165° |
| 2026-05-08 19:02 | 30.62827 | -96.37001 | 962 ft | 118 kts | 166° |
| 2026-05-08 19:02 | 30.62018 | -96.36809 | 803 ft | 117 kts | 166° |
| 2026-05-08 19:02 | 30.61219 | -96.36636 | 650 ft | 117 kts | 167° |
| 2026-05-08 19:02 | 30.60417 | -96.36453 | 496 ft | 115 kts | 166° |
| 2026-05-08 19:03 | 30.59644 | -96.36282 | 334 ft | 111 kts | 166° |
| 2026-05-08 19:03 | 30.58963 | -96.36126 | 299 ft | 79 kts | 168° |
| 2026-05-08 19:03 | 30.58570 | -96.36037 | 297 ft | 42 kts | 168° |
| 2026-05-08 19:03 | 30.58350 | -96.35983 | 296 ft | 18 kts | 165° |
| 2026-05-08 19:04 | 30.58300 | -96.35888 | 294 ft | 12 kts | 56° |
| 2026-05-08 19:04 | 30.58373 | -96.35878 | 294 ft | 12 kts | 349° |